Terminal Aerodrome Forecast
Issued by NWS Mt. Holly, NJ

Home | Current Version | Previous Version | Text Only | Print | Product List | Glossary On
Versions: 1 2 3 4 5 6 7 8 9 10 11 12 13 14 15 16 17
134
FTUS41 KPHI 261359 AAA
TAFILG
TAF AMD
KILG 261359Z 2614/2712 13006KT P6SM SCT050
     FM261500 16011KT P6SM BKN050
     FM262100 19010KT P6SM BKN035
     FM270400 24008KT 5SM -SHRA OVC015=

USA.gov is the U.S. government's official web portal to all federal, state and local government web resources and services.